sensor_id;sensor_type;location;lat;lon;timestamp;P1;durP1;ratioP1;P2;durP2;ratioP2
2860;SDS011;1438;50.922;6.704;2022-08-11T00:01:16;3.60;;;2.20;;
2860;SDS011;1438;50.922;6.704;2022-08-11T00:03:44;3.77;;;2.53;;
2860;SDS011;1438;50.922;6.704;2022-08-11T00:06:11;4.07;;;2.90;;
2860;SDS011;1438;50.922;6.704;2022-08-11T00:08:38;3.20;;;2.53;;
2860;SDS011;1438;50.922;6.704;2022-08-11T00:11:05;2.70;;;2.50;;
2860;SDS011;1438;50.922;6.704;2022-08-11T00:13:41;3.00;;;2.70;;
2860;SDS011;1438;50.922;6.704;2022-08-11T00:16:13;3.63;;;2.87;;
2860;SDS011;1438;50.922;6.704;2022-08-11T00:18:41;2.70;;;2.27;;
2860;SDS011;1438;50.922;6.704;2022-08-11T00:21:08;4.80;;;2.63;;
2860;SDS011;1438;50.922;6.704;2022-08-11T00:23:38;4.63;;;2.23;;
2860;SDS011;1438;50.922;6.704;2022-08-11T00:26:06;4.50;;;2.87;;
2860;SDS011;1438;50.922;6.704;2022-08-11T00:28:33;3.50;;;2.60;;
2860;SDS011;1438;50.922;6.704;2022-08-11T00:31:03;3.60;;;2.57;;
2860;SDS011;1438;50.922;6.704;2022-08-11T00:33:40;3.50;;;2.83;;
2860;SDS011;1438;50.922;6.704;2022-08-11T00:36:07;4.17;;;3.07;;
2860;SDS011;1438;50.922;6.704;2022-08-11T00:38:34;3.43;;;3.03;;
2860;SDS011;1438;50.922;6.704;2022-08-11T00:46:15;3.37;;;2.60;;
2860;SDS011;1438;50.922;6.704;2022-08-11T00:51:42;5.63;;;2.70;;
2860;SDS011;1438;50.922;6.704;2022-08-11T01:02:05;4.60;;;3.10;;
2860;SDS011;1438;50.922;6.704;2022-08-11T01:20:49;2.83;;;2.53;;
2860;SDS011;1438;50.922;6.704;2022-08-11T01:39:32;3.67;;;3.30;;
2860;SDS011;1438;50.922;6.704;2022-08-11T01:42:21;3.10;;;2.80;;
2860;SDS011;1438;50.922;6.704;2022-08-11T01:47:55;2.70;;;2.50;;
2860;SDS011;1438;50.922;6.704;2022-08-11T01:53:17;3.23;;;2.93;;
2860;SDS011;1438;50.922;6.704;2022-08-11T01:58:14;7.03;;;2.80;;
2860;SDS011;1438;50.922;6.704;2022-08-11T02:03:28;4.03;;;3.07;;
2860;SDS011;1438;50.922;6.704;2022-08-11T02:11:40;3.77;;;3.43;;
2860;SDS011;1438;50.922;6.704;2022-08-11T02:14:11;5.53;;;3.40;;
2860;SDS011;1438;50.922;6.704;2022-08-11T02:22:03;3.73;;;3.40;;
2860;SDS011;1438;50.922;6.704;2022-08-11T02:24:54;3.60;;;3.30;;
2860;SDS011;1438;50.922;6.704;2022-08-11T02:27:26;3.73;;;3.30;;
2860;SDS011;1438;50.922;6.704;2022-08-11T02:30:00;4.43;;;3.80;;
2860;SDS011;1438;50.922;6.704;2022-08-11T02:32:45;6.83;;;3.60;;
2860;SDS011;1438;50.922;6.704;2022-08-11T02:35:34;4.07;;;3.50;;
2860;SDS011;1438;50.922;6.704;2022-08-11T02:41:02;3.60;;;3.30;;
2860;SDS011;1438;50.922;6.704;2022-08-11T02:44:04;3.30;;;3.00;;
2860;SDS011;1438;50.922;6.704;2022-08-11T02:46:35;4.67;;;3.90;;
2860;SDS011;1438;50.922;6.704;2022-08-11T02:49:10;3.83;;;3.53;;
2860;SDS011;1438;50.922;6.704;2022-08-11T02:54:42;5.87;;;3.33;;
2860;SDS011;1438;50.922;6.704;2022-08-11T03:00:06;5.30;;;3.50;;
2860;SDS011;1438;50.922;6.704;2022-08-11T03:02:46;5.90;;;4.03;;
2860;SDS011;1438;50.922;6.704;2022-08-11T03:10:24;3.77;;;3.40;;
2860;SDS011;1438;50.922;6.704;2022-08-11T03:18:53;4.80;;;3.93;;
2860;SDS011;1438;50.922;6.704;2022-08-11T03:21:25;5.00;;;4.60;;
2860;SDS011;1438;50.922;6.704;2022-08-11T03:27:02;4.53;;;3.60;;
2860;SDS011;1438;50.922;6.704;2022-08-11T03:29:33;4.00;;;3.60;;
2860;SDS011;1438;50.922;6.704;2022-08-11T03:32:01;4.83;;;4.40;;
2860;SDS011;1438;50.922;6.704;2022-08-11T03:34:30;11.23;;;4.50;;
2860;SDS011;1438;50.922;6.704;2022-08-11T03:55:27;8.67;;;5.03;;
2860;SDS011;1438;50.922;6.704;2022-08-11T04:03:14;7.63;;;4.90;;
2860;SDS011;1438;50.922;6.704;2022-08-11T04:05:48;5.10;;;4.30;;
2860;SDS011;1438;50.922;6.704;2022-08-11T04:21:25;5.50;;;4.57;;
2860;SDS011;1438;50.922;6.704;2022-08-11T04:29:31;6.10;;;5.50;;
2860;SDS011;1438;50.922;6.704;2022-08-11T04:45:10;6.10;;;4.90;;
2860;SDS011;1438;50.922;6.704;2022-08-11T04:53:39;7.10;;;4.97;;
2860;SDS011;1438;50.922;6.704;2022-08-11T04:56:27;6.00;;;5.03;;
2860;SDS011;1438;50.922;6.704;2022-08-11T05:12:59;5.30;;;4.80;;
2860;SDS011;1438;50.922;6.704;2022-08-11T05:15:48;6.23;;;4.70;;
2860;SDS011;1438;50.922;6.704;2022-08-11T05:18:33;7.40;;;6.27;;
2860;SDS011;1438;50.922;6.704;2022-08-11T05:21:18;4.63;;;4.23;;
2860;SDS011;1438;50.922;6.704;2022-08-11T05:24:16;5.83;;;5.33;;
2860;SDS011;1438;50.922;6.704;2022-08-11T05:27:04;6.90;;;5.07;;
2860;SDS011;1438;50.922;6.704;2022-08-11T05:32:39;7.63;;;5.53;;
2860;SDS011;1438;50.922;6.704;2022-08-11T05:35:30;6.83;;;5.10;;
2860;SDS011;1438;50.922;6.704;2022-08-11T05:37:56;5.50;;;4.30;;
2860;SDS011;1438;50.922;6.704;2022-08-11T05:40:48;5.80;;;4.93;;
2860;SDS011;1438;50.922;6.704;2022-08-11T05:43:33;6.83;;;5.03;;
2860;SDS011;1438;50.922;6.704;2022-08-11T05:46:23;7.30;;;4.77;;
2860;SDS011;1438;50.922;6.704;2022-08-11T05:49:08;5.97;;;4.10;;
2860;SDS011;1438;50.922;6.704;2022-08-11T05:51:52;9.80;;;5.50;;
2860;SDS011;1438;50.922;6.704;2022-08-11T05:54:38;6.37;;;5.00;;
2860;SDS011;1438;50.922;6.704;2022-08-11T05:57:27;13.60;;;5.80;;
2860;SDS011;1438;50.922;6.704;2022-08-11T06:00:02;9.27;;;4.90;;
2860;SDS011;1438;50.922;6.704;2022-08-11T06:02:29;7.77;;;5.23;;
2860;SDS011;1438;50.922;6.704;2022-08-11T06:04:59;9.60;;;4.77;;
2860;SDS011;1438;50.922;6.704;2022-08-11T06:07:26;5.07;;;4.10;;
2860;SDS011;1438;50.922;6.704;2022-08-11T06:09:53;7.70;;;4.70;;
2860;SDS011;1438;50.922;6.704;2022-08-11T06:12:27;5.77;;;5.17;;
2860;SDS011;1438;50.922;6.704;2022-08-11T06:15:03;5.70;;;4.33;;
2860;SDS011;1438;50.922;6.704;2022-08-11T06:17:30;10.10;;;4.77;;
2860;SDS011;1438;50.922;6.704;2022-08-11T06:20:06;10.00;;;4.40;;
2860;SDS011;1438;50.922;6.704;2022-08-11T06:22:37;8.47;;;5.77;;
2860;SDS011;1438;50.922;6.704;2022-08-11T06:25:04;10.10;;;4.97;;
2860;SDS011;1438;50.922;6.704;2022-08-11T06:27:33;6.27;;;5.07;;
2860;SDS011;1438;50.922;6.704;2022-08-11T06:30:00;10.40;;;4.63;;
2860;SDS011;1438;50.922;6.704;2022-08-11T06:32:33;7.83;;;4.27;;
2860;SDS011;1438;50.922;6.704;2022-08-11T06:35:22;7.60;;;4.70;;
2860;SDS011;1438;50.922;6.704;2022-08-11T06:38:07;7.97;;;4.10;;
2860;SDS011;1438;50.922;6.704;2022-08-11T06:40:35;12.23;;;4.90;;
2860;SDS011;1438;50.922;6.704;2022-08-11T06:45:50;10.37;;;4.57;;
2860;SDS011;1438;50.922;6.704;2022-08-11T06:48:18;9.33;;;4.50;;
2860;SDS011;1438;50.922;6.704;2022-08-11T06:50:47;7.00;;;4.27;;
2860;SDS011;1438;50.922;6.704;2022-08-11T06:53:32;8.70;;;4.53;;
2860;SDS011;1438;50.922;6.704;2022-08-11T06:55:58;7.07;;;4.03;;
2860;SDS011;1438;50.922;6.704;2022-08-11T06:58:45;8.90;;;4.03;;
2860;SDS011;1438;50.922;6.704;2022-08-11T07:04:10;7.23;;;4.23;;
2860;SDS011;1438;50.922;6.704;2022-08-11T07:06:45;7.90;;;4.57;;
2860;SDS011;1438;50.922;6.704;2022-08-11T07:09:49;6.63;;;4.03;;
2860;SDS011;1438;50.922;6.704;2022-08-11T07:12:39;5.00;;;3.40;;
2860;SDS011;1438;50.922;6.704;2022-08-11T07:15:27;8.47;;;4.50;;
2860;SDS011;1438;50.922;6.704;2022-08-11T07:21:28;5.60;;;3.80;;
2860;SDS011;1438;50.922;6.704;2022-08-11T07:24:16;8.53;;;4.30;;
2860;SDS011;1438;50.922;6.704;2022-08-11T07:27:03;5.67;;;3.83;;
2860;SDS011;1438;50.922;6.704;2022-08-11T07:29:48;6.87;;;3.43;;
2860;SDS011;1438;50.922;6.704;2022-08-11T07:32:21;12.77;;;3.80;;
2860;SDS011;1438;50.922;6.704;2022-08-11T07:34:50;5.03;;;3.50;;
2860;SDS011;1438;50.922;6.704;2022-08-11T07:37:17;6.53;;;3.50;;
2860;SDS011;1438;50.922;6.704;2022-08-11T07:39:44;4.30;;;3.63;;
2860;SDS011;1438;50.922;6.704;2022-08-11T07:42:12;5.63;;;3.53;;
2860;SDS011;1438;50.922;6.704;2022-08-11T07:44:39;8.47;;;3.73;;
2860;SDS011;1438;50.922;6.704;2022-08-11T07:47:25;9.97;;;4.00;;
2860;SDS011;1438;50.922;6.704;2022-08-11T07:50:10;6.70;;;3.70;;
2860;SDS011;1438;50.922;6.704;2022-08-11T07:52:56;4.60;;;3.33;;
2860;SDS011;1438;50.922;6.704;2022-08-11T07:55:23;5.60;;;3.73;;
2860;SDS011;1438;50.922;6.704;2022-08-11T07:57:49;5.70;;;3.47;;
2860;SDS011;1438;50.922;6.704;2022-08-11T08:00:41;5.37;;;3.57;;
2860;SDS011;1438;50.922;6.704;2022-08-11T08:03:27;9.60;;;3.70;;
2860;SDS011;1438;50.922;6.704;2022-08-11T08:06:13;5.27;;;3.37;;
2860;SDS011;1438;50.922;6.704;2022-08-11T08:08:58;6.93;;;3.27;;
2860;SDS011;1438;50.922;6.704;2022-08-11T08:11:43;6.73;;;3.30;;
2860;SDS011;1438;50.922;6.704;2022-08-11T08:14:28;5.23;;;3.63;;
2860;SDS011;1438;50.922;6.704;2022-08-11T08:17:13;5.00;;;3.33;;
2860;SDS011;1438;50.922;6.704;2022-08-11T08:19:58;6.00;;;2.80;;
2860;SDS011;1438;50.922;6.704;2022-08-11T08:22:25;4.97;;;3.37;;
2860;SDS011;1438;50.922;6.704;2022-08-11T08:24:51;3.57;;;2.87;;
2860;SDS011;1438;50.922;6.704;2022-08-11T08:27:19;3.23;;;2.93;;
2860;SDS011;1438;50.922;6.704;2022-08-11T08:29:45;3.23;;;2.93;;
2860;SDS011;1438;50.922;6.704;2022-08-11T08:32:30;4.23;;;2.83;;
2860;SDS011;1438;50.922;6.704;2022-08-11T08:34:59;10.03;;;2.73;;
2860;SDS011;1438;50.922;6.704;2022-08-11T08:37:26;6.90;;;2.53;;
2860;SDS011;1438;50.922;6.704;2022-08-11T08:39:53;4.00;;;2.63;;
2860;SDS011;1438;50.922;6.704;2022-08-11T08:42:29;8.03;;;2.87;;
2860;SDS011;1438;50.922;6.704;2022-08-11T08:45:01;2.50;;;2.30;;
2860;SDS011;1438;50.922;6.704;2022-08-11T08:47:28;4.00;;;2.57;;
2860;SDS011;1438;50.922;6.704;2022-08-11T08:50:03;6.60;;;2.83;;
2860;SDS011;1438;50.922;6.704;2022-08-11T08:55:14;3.83;;;2.50;;
2860;SDS011;1438;50.922;6.704;2022-08-11T08:57:41;6.33;;;3.10;;
2860;SDS011;1438;50.922;6.704;2022-08-11T09:00:08;8.00;;;2.47;;
2860;SDS011;1438;50.922;6.704;2022-08-11T09:02:34;2.67;;;2.30;;
2860;SDS011;1438;50.922;6.704;2022-08-11T09:05:02;3.50;;;2.40;;
2860;SDS011;1438;50.922;6.704;2022-08-11T09:07:28;4.37;;;2.30;;
2860;SDS011;1438;50.922;6.704;2022-08-11T09:09:56;6.17;;;2.93;;
2860;SDS011;1438;50.922;6.704;2022-08-11T09:12:25;3.10;;;2.63;;
2860;SDS011;1438;50.922;6.704;2022-08-11T09:14:51;5.70;;;2.90;;
2860;SDS011;1438;50.922;6.704;2022-08-11T09:20:04;4.70;;;2.93;;
2860;SDS011;1438;50.922;6.704;2022-08-11T09:22:32;6.23;;;2.70;;
2860;SDS011;1438;50.922;6.704;2022-08-11T09:25:18;4.23;;;2.27;;
2860;SDS011;1438;50.922;6.704;2022-08-11T09:28:02;3.87;;;2.67;;
2860;SDS011;1438;50.922;6.704;2022-08-11T09:30:29;5.90;;;2.80;;
2860;SDS011;1438;50.922;6.704;2022-08-11T09:32:56;4.87;;;2.80;;
2860;SDS011;1438;50.922;6.704;2022-08-11T09:35:27;4.50;;;2.70;;
2860;SDS011;1438;50.922;6.704;2022-08-11T09:37:54;4.03;;;2.40;;
2860;SDS011;1438;50.922;6.704;2022-08-11T09:40:41;2.90;;;2.60;;
2860;SDS011;1438;50.922;6.704;2022-08-11T09:43:09;4.33;;;1.93;;
2860;SDS011;1438;50.922;6.704;2022-08-11T09:45:53;6.03;;;2.30;;
2860;SDS011;1438;50.922;6.704;2022-08-11T09:48:24;5.50;;;2.40;;
2860;SDS011;1438;50.922;6.704;2022-08-11T09:50:52;4.40;;;2.50;;
2860;SDS011;1438;50.922;6.704;2022-08-11T09:53:19;3.97;;;2.50;;
2860;SDS011;1438;50.922;6.704;2022-08-11T09:55:45;3.70;;;2.73;;
2860;SDS011;1438;50.922;6.704;2022-08-11T09:58:12;3.40;;;2.10;;
2860;SDS011;1438;50.922;6.704;2022-08-11T10:00:38;3.67;;;2.37;;
2860;SDS011;1438;50.922;6.704;2022-08-11T10:03:12;2.87;;;2.67;;
2860;SDS011;1438;50.922;6.704;2022-08-11T10:05:42;2.50;;;2.10;;
2860;SDS011;1438;50.922;6.704;2022-08-11T10:08:27;4.37;;;2.57;;
2860;SDS011;1438;50.922;6.704;2022-08-11T10:10:54;3.00;;;2.63;;
2860;SDS011;1438;50.922;6.704;2022-08-11T10:13:21;5.07;;;3.03;;
2860;SDS011;1438;50.922;6.704;2022-08-11T10:15:49;2.47;;;2.00;;
2860;SDS011;1438;50.922;6.704;2022-08-11T10:18:17;3.93;;;2.13;;
2860;SDS011;1438;50.922;6.704;2022-08-11T10:21:08;5.43;;;2.27;;
2860;SDS011;1438;50.922;6.704;2022-08-11T10:23:34;5.73;;;2.50;;
2860;SDS011;1438;50.922;6.704;2022-08-11T10:26:20;2.80;;;1.87;;
2860;SDS011;1438;50.922;6.704;2022-08-11T10:29:06;5.27;;;2.03;;
2860;SDS011;1438;50.922;6.704;2022-08-11T10:31:53;3.63;;;2.37;;
2860;SDS011;1438;50.922;6.704;2022-08-11T10:34:38;3.23;;;2.40;;
2860;SDS011;1438;50.922;6.704;2022-08-11T10:37:04;2.20;;;1.80;;
2860;SDS011;1438;50.922;6.704;2022-08-11T10:39:31;4.53;;;2.10;;
2860;SDS011;1438;50.922;6.704;2022-08-11T10:42:04;4.93;;;1.97;;
2860;SDS011;1438;50.922;6.704;2022-08-11T10:44:54;2.70;;;2.33;;
2860;SDS011;1438;50.922;6.704;2022-08-11T10:47:21;3.27;;;2.23;;
2860;SDS011;1438;50.922;6.704;2022-08-11T10:50:03;3.00;;;2.07;;
2860;SDS011;1438;50.922;6.704;2022-08-11T10:52:56;3.00;;;2.70;;
2860;SDS011;1438;50.922;6.704;2022-08-11T10:55:41;3.50;;;2.63;;
2860;SDS011;1438;50.922;6.704;2022-08-11T10:58:26;3.20;;;2.20;;
2860;SDS011;1438;50.922;6.704;2022-08-11T11:01:11;3.00;;;2.50;;
2860;SDS011;1438;50.922;6.704;2022-08-11T11:03:38;3.97;;;2.50;;
2860;SDS011;1438;50.922;6.704;2022-08-11T11:06:18;6.33;;;2.57;;
2860;SDS011;1438;50.922;6.704;2022-08-11T11:08:50;3.87;;;2.07;;
2860;SDS011;1438;50.922;6.704;2022-08-11T11:11:16;3.03;;;2.23;;
2860;SDS011;1438;50.922;6.704;2022-08-11T11:13:44;3.67;;;2.13;;
2860;SDS011;1438;50.922;6.704;2022-08-11T11:16:30;11.03;;;2.50;;
2860;SDS011;1438;50.922;6.704;2022-08-11T11:19:15;4.23;;;2.50;;
2860;SDS011;1438;50.922;6.704;2022-08-11T11:21:45;2.33;;;2.13;;
2860;SDS011;1438;50.922;6.704;2022-08-11T11:24:15;3.20;;;2.40;;
2860;SDS011;1438;50.922;6.704;2022-08-11T11:26:51;4.50;;;2.90;;
2860;SDS011;1438;50.922;6.704;2022-08-11T11:31:58;5.00;;;2.47;;
2860;SDS011;1438;50.922;6.704;2022-08-11T11:37:15;5.10;;;2.50;;
2860;SDS011;1438;50.922;6.704;2022-08-11T11:39:42;2.40;;;2.20;;
2860;SDS011;1438;50.922;6.704;2022-08-11T11:42:08;5.30;;;2.30;;
2860;SDS011;1438;50.922;6.704;2022-08-11T11:44:36;5.77;;;2.60;;
2860;SDS011;1438;50.922;6.704;2022-08-11T11:47:02;2.10;;;1.90;;
2860;SDS011;1438;50.922;6.704;2022-08-11T11:49:30;2.30;;;2.00;;
2860;SDS011;1438;50.922;6.704;2022-08-11T11:51:56;6.30;;;2.70;;
2860;SDS011;1438;50.922;6.704;2022-08-11T11:54:24;8.17;;;2.60;;
2860;SDS011;1438;50.922;6.704;2022-08-11T11:56:53;2.23;;;1.93;;
2860;SDS011;1438;50.922;6.704;2022-08-11T11:59:20;3.03;;;2.40;;
2860;SDS011;1438;50.922;6.704;2022-08-11T12:02:06;4.30;;;1.90;;
2860;SDS011;1438;50.922;6.704;2022-08-11T12:04:32;2.70;;;2.17;;
2860;SDS011;1438;50.922;6.704;2022-08-11T12:07:01;2.10;;;1.93;;
2860;SDS011;1438;50.922;6.704;2022-08-11T12:09:45;2.47;;;2.27;;
2860;SDS011;1438;50.922;6.704;2022-08-11T12:12:12;5.33;;;2.70;;
2860;SDS011;1438;50.922;6.704;2022-08-11T12:14:57;4.87;;;2.20;;
2860;SDS011;1438;50.922;6.704;2022-08-11T12:17:23;4.03;;;2.20;;
2860;SDS011;1438;50.922;6.704;2022-08-11T12:19:49;4.30;;;2.30;;
2860;SDS011;1438;50.922;6.704;2022-08-11T12:22:16;5.53;;;2.83;;
2860;SDS011;1438;50.922;6.704;2022-08-11T12:25:02;2.53;;;2.10;;
2860;SDS011;1438;50.922;6.704;2022-08-11T12:27:47;3.70;;;2.60;;
2860;SDS011;1438;50.922;6.704;2022-08-11T12:30:13;1.90;;;1.80;;
2860;SDS011;1438;50.922;6.704;2022-08-11T12:32:39;6.00;;;2.53;;
2860;SDS011;1438;50.922;6.704;2022-08-11T12:35:06;3.60;;;2.17;;
2860;SDS011;1438;50.922;6.704;2022-08-11T12:37:39;3.50;;;2.40;;
2860;SDS011;1438;50.922;6.704;2022-08-11T12:40:10;3.07;;;2.47;;
2860;SDS011;1438;50.922;6.704;2022-08-11T12:42:56;3.13;;;2.00;;
2860;SDS011;1438;50.922;6.704;2022-08-11T12:45:43;2.67;;;2.37;;
2860;SDS011;1438;50.922;6.704;2022-08-11T12:48:11;2.10;;;1.90;;
2860;SDS011;1438;50.922;6.704;2022-08-11T12:51:00;2.40;;;2.20;;
2860;SDS011;1438;50.922;6.704;2022-08-11T12:53:50;4.03;;;2.33;;
2860;SDS011;1438;50.922;6.704;2022-08-11T12:56:17;3.30;;;2.50;;
2860;SDS011;1438;50.922;6.704;2022-08-11T12:59:02;4.60;;;2.30;;
2860;SDS011;1438;50.922;6.704;2022-08-11T13:01:48;3.90;;;2.30;;
2860;SDS011;1438;50.922;6.704;2022-08-11T13:04:33;3.80;;;2.50;;
2860;SDS011;1438;50.922;6.704;2022-08-11T13:07:20;2.70;;;2.30;;
2860;SDS011;1438;50.922;6.704;2022-08-11T13:09:47;3.37;;;2.50;;
2860;SDS011;1438;50.922;6.704;2022-08-11T13:12:13;4.10;;;2.30;;
2860;SDS011;1438;50.922;6.704;2022-08-11T13:14:59;3.47;;;2.20;;
2860;SDS011;1438;50.922;6.704;2022-08-11T13:17:26;2.33;;;2.13;;
2860;SDS011;1438;50.922;6.704;2022-08-11T13:19:53;3.10;;;2.30;;
2860;SDS011;1438;50.922;6.704;2022-08-11T13:22:20;2.57;;;2.37;;
2860;SDS011;1438;50.922;6.704;2022-08-11T13:24:48;2.83;;;2.57;;
2860;SDS011;1438;50.922;6.704;2022-08-11T13:27:15;2.50;;;2.30;;
2860;SDS011;1438;50.922;6.704;2022-08-11T13:29:42;3.97;;;2.20;;
2860;SDS011;1438;50.922;6.704;2022-08-11T13:32:10;2.97;;;2.40;;
2860;SDS011;1438;50.922;6.704;2022-08-11T13:34:37;6.77;;;2.60;;
2860;SDS011;1438;50.922;6.704;2022-08-11T13:37:06;4.07;;;2.40;;
2860;SDS011;1438;50.922;6.704;2022-08-11T13:39:32;4.90;;;2.90;;
2860;SDS011;1438;50.922;6.704;2022-08-11T13:41:59;5.77;;;2.43;;
2860;SDS011;1438;50.922;6.704;2022-08-11T13:44:26;5.17;;;2.20;;
2860;SDS011;1438;50.922;6.704;2022-08-11T13:46:55;2.10;;;2.00;;
2860;SDS011;1438;50.922;6.704;2022-08-11T13:49:22;3.00;;;2.20;;
2860;SDS011;1438;50.922;6.704;2022-08-11T13:51:48;4.30;;;2.63;;
2860;SDS011;1438;50.922;6.704;2022-08-11T13:54:18;2.93;;;2.67;;
2860;SDS011;1438;50.922;6.704;2022-08-11T13:56:46;3.00;;;2.30;;
2860;SDS011;1438;50.922;6.704;2022-08-11T13:59:13;3.63;;;2.23;;
2860;SDS011;1438;50.922;6.704;2022-08-11T14:01:41;3.20;;;2.17;;
2860;SDS011;1438;50.922;6.704;2022-08-11T14:04:09;2.43;;;2.13;;
2860;SDS011;1438;50.922;6.704;2022-08-11T14:06:37;5.63;;;2.60;;
2860;SDS011;1438;50.922;6.704;2022-08-11T14:09:09;3.10;;;2.67;;
2860;SDS011;1438;50.922;6.704;2022-08-11T14:11:35;3.00;;;2.50;;
2860;SDS011;1438;50.922;6.704;2022-08-11T14:14:24;2.20;;;2.00;;
2860;SDS011;1438;50.922;6.704;2022-08-11T14:16:51;7.17;;;2.70;;
2860;SDS011;1438;50.922;6.704;2022-08-11T14:19:18;4.20;;;2.57;;
2860;SDS011;1438;50.922;6.704;2022-08-11T14:21:46;3.50;;;2.63;;
2860;SDS011;1438;50.922;6.704;2022-08-11T14:24:31;2.87;;;2.63;;
2860;SDS011;1438;50.922;6.704;2022-08-11T14:26:57;3.03;;;2.37;;
2860;SDS011;1438;50.922;6.704;2022-08-11T14:29:25;2.73;;;2.50;;
2860;SDS011;1438;50.922;6.704;2022-08-11T14:31:52;3.07;;;2.57;;
2860;SDS011;1438;50.922;6.704;2022-08-11T14:34:19;3.00;;;2.50;;
2860;SDS011;1438;50.922;6.704;2022-08-11T14:36:47;2.60;;;2.40;;
2860;SDS011;1438;50.922;6.704;2022-08-11T14:39:20;2.53;;;2.27;;
2860;SDS011;1438;50.922;6.704;2022-08-11T14:42:05;3.83;;;2.53;;
2860;SDS011;1438;50.922;6.704;2022-08-11T14:44:55;2.77;;;2.50;;
2860;SDS011;1438;50.922;6.704;2022-08-11T14:47:31;2.97;;;2.30;;
2860;SDS011;1438;50.922;6.704;2022-08-11T14:49:58;3.67;;;2.43;;
2860;SDS011;1438;50.922;6.704;2022-08-11T14:52:26;2.57;;;2.33;;
2860;SDS011;1438;50.922;6.704;2022-08-11T14:54:52;2.50;;;2.30;;
2860;SDS011;1438;50.922;6.704;2022-08-11T14:57:38;5.07;;;2.50;;
2860;SDS011;1438;50.922;6.704;2022-08-11T15:00:06;4.53;;;2.57;;
2860;SDS011;1438;50.922;6.704;2022-08-11T15:02:36;2.63;;;2.43;;
2860;SDS011;1438;50.922;6.704;2022-08-11T15:05:22;4.50;;;2.20;;
2860;SDS011;1438;50.922;6.704;2022-08-11T15:07:48;3.87;;;2.27;;
2860;SDS011;1438;50.922;6.704;2022-08-11T15:10:15;2.47;;;2.27;;
2860;SDS011;1438;50.922;6.704;2022-08-11T15:12:41;4.07;;;2.50;;
2860;SDS011;1438;50.922;6.704;2022-08-11T15:15:08;4.90;;;2.53;;
2860;SDS011;1438;50.922;6.704;2022-08-11T15:17:53;3.33;;;2.60;;
2860;SDS011;1438;50.922;6.704;2022-08-11T15:20:19;3.70;;;2.53;;
2860;SDS011;1438;50.922;6.704;2022-08-11T15:23:05;3.33;;;2.70;;
2860;SDS011;1438;50.922;6.704;2022-08-11T15:25:52;3.80;;;2.63;;
2860;SDS011;1438;50.922;6.704;2022-08-11T15:28:20;2.70;;;2.50;;
2860;SDS011;1438;50.922;6.704;2022-08-11T15:31:05;3.20;;;2.60;;
2860;SDS011;1438;50.922;6.704;2022-08-11T15:33:51;3.30;;;2.30;;
2860;SDS011;1438;50.922;6.704;2022-08-11T15:36:37;3.20;;;2.30;;
2860;SDS011;1438;50.922;6.704;2022-08-11T15:39:23;3.40;;;3.10;;
2860;SDS011;1438;50.922;6.704;2022-08-11T15:42:08;2.63;;;2.43;;
2860;SDS011;1438;50.922;6.704;2022-08-11T15:44:56;3.73;;;2.50;;
2860;SDS011;1438;50.922;6.704;2022-08-11T15:47:49;3.67;;;2.57;;
2860;SDS011;1438;50.922;6.704;2022-08-11T15:50:21;2.20;;;2.00;;
2860;SDS011;1438;50.922;6.704;2022-08-11T15:52:52;4.30;;;2.53;;
2860;SDS011;1438;50.922;6.704;2022-08-11T15:55:19;2.03;;;1.93;;
2860;SDS011;1438;50.922;6.704;2022-08-11T15:57:48;5.90;;;2.67;;
2860;SDS011;1438;50.922;6.704;2022-08-11T16:00:34;2.57;;;2.37;;
2860;SDS011;1438;50.922;6.704;2022-08-11T16:03:20;4.27;;;2.30;;
2860;SDS011;1438;50.922;6.704;2022-08-11T16:06:06;3.83;;;2.73;;
2860;SDS011;1438;50.922;6.704;2022-08-11T16:08:32;3.70;;;2.37;;
2860;SDS011;1438;50.922;6.704;2022-08-11T16:10:59;2.77;;;2.57;;
2860;SDS011;1438;50.922;6.704;2022-08-11T16:13:26;5.00;;;2.10;;
2860;SDS011;1438;50.922;6.704;2022-08-11T16:15:54;3.10;;;2.10;;
2860;SDS011;1438;50.922;6.704;2022-08-11T16:18:44;2.70;;;2.17;;
2860;SDS011;1438;50.922;6.704;2022-08-11T16:21:14;3.20;;;2.43;;
2860;SDS011;1438;50.922;6.704;2022-08-11T16:23:42;3.10;;;2.53;;
2860;SDS011;1438;50.922;6.704;2022-08-11T16:26:08;3.53;;;2.43;;
2860;SDS011;1438;50.922;6.704;2022-08-11T16:28:35;6.33;;;2.57;;
2860;SDS011;1438;50.922;6.704;2022-08-11T16:31:03;2.67;;;2.30;;
2860;SDS011;1438;50.922;6.704;2022-08-11T16:33:35;5.33;;;2.57;;
2860;SDS011;1438;50.922;6.704;2022-08-11T16:36:02;2.23;;;2.13;;
2860;SDS011;1438;50.922;6.704;2022-08-11T16:38:47;3.73;;;2.23;;
2860;SDS011;1438;50.922;6.704;2022-08-11T16:41:15;2.43;;;2.20;;
2860;SDS011;1438;50.922;6.704;2022-08-11T16:44:01;3.37;;;2.20;;
2860;SDS011;1438;50.922;6.704;2022-08-11T16:46:47;3.20;;;2.40;;
2860;SDS011;1438;50.922;6.704;2022-08-11T16:49:24;3.17;;;2.20;;
2860;SDS011;1438;50.922;6.704;2022-08-11T16:51:51;2.70;;;2.50;;
2860;SDS011;1438;50.922;6.704;2022-08-11T16:54:17;2.90;;;2.50;;
2860;SDS011;1438;50.922;6.704;2022-08-11T16:56:52;2.60;;;2.40;;
2860;SDS011;1438;50.922;6.704;2022-08-11T16:59:19;4.10;;;3.70;;
2860;SDS011;1438;50.922;6.704;2022-08-11T17:01:50;5.73;;;2.70;;
2860;SDS011;1438;50.922;6.704;2022-08-11T17:04:27;6.10;;;2.27;;
2860;SDS011;1438;50.922;6.704;2022-08-11T17:07:13;4.10;;;2.73;;
2860;SDS011;1438;50.922;6.704;2022-08-11T17:09:59;2.60;;;2.40;;
2860;SDS011;1438;50.922;6.704;2022-08-11T17:12:46;2.40;;;2.20;;
2860;SDS011;1438;50.922;6.704;2022-08-11T17:15:32;4.13;;;2.60;;
2860;SDS011;1438;50.922;6.704;2022-08-11T17:18:17;3.50;;;2.30;;
2860;SDS011;1438;50.922;6.704;2022-08-11T17:21:02;3.90;;;2.80;;
2860;SDS011;1438;50.922;6.704;2022-08-11T17:23:30;2.70;;;2.50;;
2860;SDS011;1438;50.922;6.704;2022-08-11T17:26:23;4.30;;;2.80;;
2860;SDS011;1438;50.922;6.704;2022-08-11T17:28:54;2.53;;;2.30;;
2860;SDS011;1438;50.922;6.704;2022-08-11T17:31:22;5.07;;;2.80;;
2860;SDS011;1438;50.922;6.704;2022-08-11T17:34:07;4.40;;;3.20;;
2860;SDS011;1438;50.922;6.704;2022-08-11T17:36:55;4.00;;;2.70;;
2860;SDS011;1438;50.922;6.704;2022-08-11T17:39:25;4.97;;;2.97;;
2860;SDS011;1438;50.922;6.704;2022-08-11T17:41:55;2.63;;;2.43;;
2860;SDS011;1438;50.922;6.704;2022-08-11T17:44:40;2.80;;;2.60;;
2860;SDS011;1438;50.922;6.704;2022-08-11T17:47:25;3.13;;;2.33;;
2860;SDS011;1438;50.922;6.704;2022-08-11T17:50:11;3.90;;;3.50;;
2860;SDS011;1438;50.922;6.704;2022-08-11T17:52:38;8.03;;;3.80;;
2860;SDS011;1438;50.922;6.704;2022-08-11T17:55:25;3.60;;;2.40;;
2860;SDS011;1438;50.922;6.704;2022-08-11T17:58:10;7.70;;;3.30;;
2860;SDS011;1438;50.922;6.704;2022-08-11T18:00:56;8.23;;;3.03;;
2860;SDS011;1438;50.922;6.704;2022-08-11T18:03:23;5.13;;;3.07;;
2860;SDS011;1438;50.922;6.704;2022-08-11T18:06:03;5.13;;;2.40;;
2860;SDS011;1438;50.922;6.704;2022-08-11T18:08:30;3.23;;;2.73;;
2860;SDS011;1438;50.922;6.704;2022-08-11T18:11:16;4.53;;;2.67;;
2860;SDS011;1438;50.922;6.704;2022-08-11T18:14:03;4.03;;;2.77;;
2860;SDS011;1438;50.922;6.704;2022-08-11T18:16:48;7.97;;;2.90;;
2860;SDS011;1438;50.922;6.704;2022-08-11T18:19:33;4.23;;;2.77;;
2860;SDS011;1438;50.922;6.704;2022-08-11T18:22:22;5.30;;;3.00;;
2860;SDS011;1438;50.922;6.704;2022-08-11T18:25:16;7.00;;;3.00;;
2860;SDS011;1438;50.922;6.704;2022-08-11T18:28:04;7.63;;;3.27;;
2860;SDS011;1438;50.922;6.704;2022-08-11T18:30:50;3.37;;;2.50;;
2860;SDS011;1438;50.922;6.704;2022-08-11T18:33:36;6.60;;;3.20;;
2860;SDS011;1438;50.922;6.704;2022-08-11T18:36:23;4.20;;;2.87;;
2860;SDS011;1438;50.922;6.704;2022-08-11T18:39:11;3.73;;;3.17;;
2860;SDS011;1438;50.922;6.704;2022-08-11T18:41:57;6.40;;;2.60;;
2860;SDS011;1438;50.922;6.704;2022-08-11T18:44:43;3.60;;;3.30;;
2860;SDS011;1438;50.922;6.704;2022-08-11T18:47:28;4.30;;;2.93;;
2860;SDS011;1438;50.922;6.704;2022-08-11T18:50:13;3.90;;;2.80;;
2860;SDS011;1438;50.922;6.704;2022-08-11T18:52:58;4.53;;;2.70;;
2860;SDS011;1438;50.922;6.704;2022-08-11T18:55:44;4.83;;;2.50;;
2860;SDS011;1438;50.922;6.704;2022-08-11T18:58:30;7.03;;;2.70;;
2860;SDS011;1438;50.922;6.704;2022-08-11T19:01:15;5.03;;;2.90;;
2860;SDS011;1438;50.922;6.704;2022-08-11T19:04:02;3.00;;;2.70;;
2860;SDS011;1438;50.922;6.704;2022-08-11T19:06:49;4.43;;;3.07;;
2860;SDS011;1438;50.922;6.704;2022-08-11T19:09:34;3.87;;;3.30;;
2860;SDS011;1438;50.922;6.704;2022-08-11T19:12:21;4.50;;;3.37;;
2860;SDS011;1438;50.922;6.704;2022-08-11T19:15:07;3.70;;;3.23;;
2860;SDS011;1438;50.922;6.704;2022-08-11T19:17:52;4.93;;;3.23;;